Time;durP1;ratioP1;P1;durP2;ratioP2;P2;SDS_P1;SDS_P2;PMS_P1;PMS_P2;Temp;Humidity;BMP_temperature;BMP_pressure;BME280_temperature;BME280_humidity;BME280_pressure;Samples;Min_cycle;Max_cycle;Signal;HPM_P1;HPM_P2
2022/03/12 00:00:54;;;;;;;;;4.50;3.00;;;;;10.09;71.31;100594.47;5004661;28;45251;-65
2022/03/12 00:03:19;;;;;;;;;3.00;3.00;;;;;10.10;71.19;100605.00;5004350;28;45389;-66
2022/03/12 00:05:54;;;;;;;;;3.00;3.00;;;;;10.05;71.69;100610.59;5002323;28;45349;-66
2022/03/12 00:08:21;;;;;;;;;4.00;4.00;;;;;9.96;71.62;100597.78;4965422;28;45814;-64
2022/03/12 00:10:52;;;;;;;;;2.00;2.00;;;;;10.02;70.83;100612.50;5002331;28;46118;-65
2022/03/12 00:13:22;;;;;;;;;1.00;1.00;;;;;10.01;72.37;100624.09;5010928;28;45303;-65
2022/03/12 00:15:50;;;;;;;;;3.00;3.00;;;;;9.99;72.02;100618.84;4996696;28;45872;-65
2022/03/12 00:18:19;;;;;;;;;4.75;1.25;;;;;9.89;72.13;100614.97;5003812;28;45393;-67
2022/03/12 00:20:48;;;;;;;;;2.50;2.50;;;;;9.87;71.38;100621.31;5001816;28;45361;-65
2022/03/12 00:23:14;;;;;;;;;6.00;2.00;;;;;9.87;72.16;100616.84;5007814;28;44790;-64
2022/03/12 00:25:41;;;;;;;;;6.00;3.50;;;;;9.80;71.90;100607.50;5003594;28;45478;-66
2022/03/12 00:28:07;;;;;;;;;6.50;4.00;;;;;9.85;70.81;100615.22;5001151;28;45599;-65
2022/03/12 00:30:35;;;;;;;;;2.00;2.00;;;;;9.95;71.85;100641.22;5004622;28;45543;-64
2022/03/12 00:33:02;;;;;;;;;3.00;3.00;;;;;9.92;72.09;100630.78;4985143;28;45468;-65
2022/03/12 00:35:27;;;;;;;;;6.00;5.25;;;;;9.99;71.15;100644.56;4985687;28;45467;-64
2022/03/12 00:37:53;;;;;;;;;6.00;4.50;;;;;9.98;70.73;100638.41;5003421;28;45908;-65
2022/03/12 00:40:20;;;;;;;;;5.50;5.50;;;;;10.02;71.85;100639.94;4999539;28;45491;-66
2022/03/12 00:42:45;;;;;;;;;3.00;3.00;;;;;10.07;70.97;100646.84;5016654;28;45422;-67
2022/03/12 00:45:12;;;;;;;;;7.50;2.00;;;;;10.10;70.83;100650.19;4996568;28;45463;-65
2022/03/12 00:47:37;;;;;;;;;4.50;4.50;;;;;10.13;71.33;100657.97;5016266;28;45596;-65
2022/03/12 00:50:04;;;;;;;;;11.00;3.50;;;;;10.14;71.37;100662.34;5014004;28;45235;-65
2022/03/12 00:52:29;;;;;;;;;4.50;3.50;;;;;10.20;70.73;100669.16;5016555;28;45397;-66
2022/03/12 00:54:55;;;;;;;;;4.00;4.00;;;;;10.14;70.49;100654.38;5013940;28;45439;-64
2022/03/12 00:57:20;;;;;;;;;8.75;5.50;;;;;10.20;70.93;100669.16;5010225;28;45507;-65
2022/03/12 00:59:46;;;;;;;;;3.00;3.00;;;;;10.19;71.01;100676.28;5003496;28;46069;-66
2022/03/12 01:02:15;;;;;;;;;4.50;4.50;;;;;10.22;71.54;100677.94;5006794;28;45222;-67
2022/03/12 01:04:42;;;;;;;;;3.00;3.00;;;;;10.26;70.77;100676.81;5010709;28;45427;-65
2022/03/12 01:07:11;;;;;;;;;2.75;2.75;;;;;10.29;70.00;100682.00;5005056;28;45246;-64
2022/03/12 01:09:40;;;;;;;;;5.75;5.00;;;;;10.21;70.22;100678.84;5007096;28;45450;-67
2022/03/12 01:12:08;;;;;;;;;3.00;3.00;;;;;10.24;70.29;100689.34;5006368;28;45382;-69
2022/03/12 01:14:38;;;;;;;;;10.00;5.00;;;;;10.23;71.16;100698.25;4985186;28;45336;-66
2022/03/12 01:17:06;;;;;;;;;5.00;5.00;;;;;10.12;70.18;100692.63;5007818;28;45570;-65
2022/03/12 01:19:34;;;;;;;;;3.00;2.25;;;;;10.13;70.41;100697.84;5011190;28;46177;-65
2022/03/12 01:22:01;;;;;;;;;5.00;2.50;;;;;10.19;70.63;100702.84;4987681;28;45361;-65
2022/03/12 01:24:28;;;;;;;;;2.25;2.25;;;;;10.12;69.87;100689.97;5002028;28;45916;-65
2022/03/12 01:26:53;;;;;;;;;1.50;1.50;;;;;10.20;70.60;100703.72;5007195;28;45414;-67
2022/03/12 01:29:18;;;;;;;;;6.50;5.75;;;;;10.24;69.99;100705.28;4992158;28;47398;-65
2022/03/12 01:31:44;;;;;;;;;2.00;2.00;;;;;10.14;70.39;100683.63;5007700;28;45422;-65
2022/03/12 01:34:09;;;;;;;;;3.75;2.75;;;;;10.20;69.97;100709.03;5005081;28;45398;-64
2022/03/12 01:36:34;;;;;;;;;5.00;2.25;;;;;10.13;69.57;100691.66;4994953;28;45347;-66
2022/03/12 01:39:03;;;;;;;;;5.25;3.50;;;;;10.13;69.60;100689.00;4986634;28;45892;-66
2022/03/12 01:41:31;;;;;;;;;3.00;3.00;;;;;10.13;70.51;100697.00;5000110;28;45298;-65
2022/03/12 01:43:59;;;;;;;;;5.50;4.50;;;;;10.07;70.00;100689.34;5005679;28;45294;-64
2022/03/12 01:46:29;;;;;;;;;3.50;3.50;;;;;10.04;70.89;100680.59;5007958;28;45333;-66
2022/03/12 01:48:59;;;;;;;;;4.00;4.00;;;;;9.97;69.98;100686.31;5005284;28;45817;-65
2022/03/12 01:51:26;;;;;;;;;3.00;3.00;;;;;10.03;70.83;100705.47;5007994;28;45726;-64
2022/03/12 01:53:52;;;;;;;;;2.75;2.75;;;;;9.99;70.22;100687.94;5008138;28;45357;-66
2022/03/12 01:56:18;;;;;;;;;5.50;3.00;;;;;9.95;71.19;100682.88;5015558;28;45171;-66
2022/03/12 01:58:46;;;;;;;;;3.00;3.00;;;;;10.03;70.67;100697.50;5016874;28;45395;-66
2022/03/12 02:01:13;;;;;;;;;3.00;3.00;;;;;10.02;71.01;100701.06;5012580;28;45521;-66
2022/03/12 02:03:39;;;;;;;;;3.00;3.00;;;;;10.02;71.36;100700.19;5005594;28;45530;-64
2022/03/12 02:06:05;;;;;;;;;3.75;2.50;;;;;10.02;70.37;100701.06;5012968;28;45467;-64
2022/03/12 02:08:30;;;;;;;;;5.50;3.00;;;;;10.08;70.94;100718.50;5009044;28;46330;-65
2022/03/12 02:10:59;;;;;;;;;5.00;5.00;;;;;10.09;70.59;100716.69;5003579;28;45400;-66
2022/03/12 02:13:26;;;;;;;;;3.50;3.50;;;;;10.12;70.42;100732.47;5004719;28;45345;-66
2022/03/12 02:16:05;;;;;;;;;5.00;3.00;;;;;10.00;71.22;100708.25;5005712;28;45646;-65
2022/03/12 02:18:30;;;;;;;;;3.00;3.00;;;;;10.04;70.21;100720.47;5004686;28;45801;-65
2022/03/12 02:20:57;;;;;;;;;5.00;5.00;;;;;10.04;70.71;100731.09;5000990;28;45378;-65
2022/03/12 02:23:23;;;;;;;;;4.50;2.00;;;;;9.93;70.98;100706.00;4989177;28;45883;-64
2022/03/12 02:25:49;;;;;;;;;3.00;3.00;;;;;9.92;70.55;100713.13;4991356;28;45668;-63
2022/03/12 02:28:17;;;;;;;;;6.00;4.50;;;;;10.00;69.93;100726.84;5003821;28;45482;-65
2022/03/12 02:30:51;;;;;;;;;2.25;2.00;;;;;9.93;70.97;100717.50;5004022;28;45436;-68
2022/03/12 02:33:26;;;;;;;;;3.00;3.00;;;;;9.93;71.08;100727.25;5001165;28;45421;-65
2022/03/12 02:35:52;;;;;;;;;0.75;0.75;;;;;9.90;70.93;100730.94;5002133;28;45501;-66
2022/03/12 02:38:21;;;;;;;;;5.00;4.50;;;;;9.91;70.50;100730.00;5004405;28;45369;-65
2022/03/12 02:40:49;;;;;;;;;7.00;5.75;;;;;9.83;70.91;100729.53;5002510;28;45526;-64
2022/03/12 02:43:24;;;;;;;;;3.00;3.00;;;;;9.83;71.63;100723.34;5002700;28;45235;-64
2022/03/12 02:45:51;;;;;;;;;3.00;3.00;;;;;9.77;71.06;100727.19;5003002;28;45229;-64
2022/03/12 02:48:18;;;;;;;;;2.50;2.50;;;;;9.73;71.03;100722.94;4994804;28;46739;-65
2022/03/12 02:50:44;;;;;;;;;6.75;5.00;;;;;9.73;71.22;100725.59;5009619;28;45483;-67
2022/03/12 02:53:09;;;;;;;;;5.00;2.50;;;;;9.71;70.39;100717.72;5004569;28;45578;-66
2022/03/12 02:55:36;;;;;;;;;6.00;3.00;;;;;9.71;71.17;100728.34;5001983;28;45440;-64
2022/03/12 02:58:01;;;;;;;;;6.25;6.00;;;;;9.61;70.56;100703.19;5000402;28;46136;-66
2022/03/12 03:00:27;;;;;;;;;5.00;5.00;;;;;9.65;71.00;100706.56;5013572;28;45317;-65
2022/03/12 03:02:55;;;;;;;;;5.75;4.50;;;;;9.68;70.79;100717.88;5015716;28;45388;-66
2022/03/12 03:08:00;;;;;;;;;3.00;3.00;;;;;9.65;71.63;100718.03;5000665;28;46589;-64
2022/03/12 03:10:34;;;;;;;;;2.25;2.25;;;;;9.65;71.88;100738.44;5003060;28;45281;-65
2022/03/12 03:13:18;;;;;;;;;2.25;2.25;;;;;9.65;71.23;100735.78;5005421;28;45439;-65
2022/03/12 03:15:44;;;;;;;;;3.00;3.00;;;;;9.67;71.50;100741.84;5005513;28;45322;-65
2022/03/12 03:18:12;;;;;;;;;2.75;2.00;;;;;9.66;71.40;100745.47;4996035;28;47090;-65
2022/03/12 03:20:37;;;;;;;;;3.00;3.00;;;;;9.64;71.42;100734.91;4997355;28;45487;-65
2022/03/12 03:23:06;;;;;;;;;5.00;5.00;;;;;9.62;71.16;100727.94;4981851;28;45238;-65
2022/03/12 03:25:32;;;;;;;;;2.75;2.75;;;;;9.65;70.86;100733.13;5003521;28;45365;-65
2022/03/12 03:27:57;;;;;;;;;3.00;3.00;;;;;9.71;70.87;100738.09;5006808;28;45389;-63
2022/03/12 03:30:23;;;;;;;;;3.50;2.00;;;;;9.65;70.35;100733.13;5005701;28;45492;-66
2022/03/12 03:32:48;;;;;;;;;6.50;5.00;;;;;9.66;71.20;100740.13;5007576;28;46053;-65
2022/03/12 03:35:13;;;;;;;;;4.50;4.50;;;;;9.68;71.65;100754.19;4987858;28;45408;-64
2022/03/12 03:37:39;;;;;;;;;6.25;3.00;;;;;9.65;71.54;100741.94;5002322;28;46328;-65
2022/03/12 03:40:05;;;;;;;;;6.00;3.00;;;;;9.67;70.95;100742.72;5011725;28;45284;-66
2022/03/12 03:42:30;;;;;;;;;5.00;3.00;;;;;9.68;70.92;100744.44;5011196;28;45392;-69
2022/03/12 03:45:02;;;;;;;;;6.00;5.00;;;;;9.64;70.73;100734.91;5004571;28;45310;-66
2022/03/12 03:47:28;;;;;;;;;5.00;2.75;;;;;9.70;71.52;100747.00;5000950;28;46098;-66
2022/03/12 03:49:54;;;;;;;;;7.00;6.00;;;;;9.67;70.80;100753.34;5005263;28;45289;-65
2022/03/12 03:52:20;;;;;;;;;3.00;3.00;;;;;9.68;71.37;100756.84;5011311;28;45320;-67
2022/03/12 03:54:48;;;;;;;;;1.25;1.25;;;;;9.68;71.64;100754.19;5013810;28;45392;-64
2022/03/12 03:57:14;;;;;;;;;3.00;3.00;;;;;9.71;70.80;100751.38;5012937;28;45185;-63
2022/03/12 03:59:40;;;;;;;;;4.75;3.00;;;;;9.68;70.05;100754.19;5010221;28;45410;-64
2022/03/12 04:02:05;;;;;;;;;6.00;4.50;;;;;9.67;70.70;100755.13;5013563;28;45494;-65
2022/03/12 04:04:35;;;;;;;;;3.50;3.50;;;;;9.66;70.66;100756.06;4998951;28;45441;-69
2022/03/12 04:07:01;;;;;;;;;9.25;5.00;;;;;9.58;70.16;100747.63;5011029;28;45468;-66
2022/03/12 04:09:27;;;;;;;;;5.50;5.00;;;;;9.53;71.24;100744.34;4986646;28;45457;-66
2022/03/12 04:11:53;;;;;;;;;4.50;3.00;;;;;9.50;70.32;100747.13;5010440;28;44875;-66
2022/03/12 04:14:18;;;;;;;;;3.00;3.00;;;;;9.41;71.20;100741.34;5028555;28;45591;-67
2022/03/12 04:16:44;;;;;;;;;3.00;3.00;;;;;9.50;70.90;100749.78;5010828;28;46096;-65
2022/03/12 04:19:11;;;;;;;;;4.50;4.50;;;;;9.49;70.94;100764.84;5005114;28;45376;-66
2022/03/12 04:21:36;;;;;;;;;5.00;5.00;;;;;9.44;71.22;100767.75;4998880;28;45361;-66
2022/03/12 04:24:03;;;;;;;;;3.00;3.00;;;;;9.42;71.30;100766.09;5000743;28;45465;-66
2022/03/12 04:26:33;;;;;;;;;5.25;4.50;;;;;9.35;71.05;100757.56;5004341;28;45957;-65
2022/03/12 04:28:59;;;;;;;;;3.00;3.00;;;;;9.36;71.07;100758.41;5005989;28;44642;-67
2022/03/12 04:31:24;;;;;;;;;4.50;3.00;;;;;9.35;71.30;100760.22;5010529;28;44750;-65
2022/03/12 04:33:51;;;;;;;;;3.00;3.00;;;;;9.37;70.93;100766.28;5010010;28;44868;-64
2022/03/12 04:36:16;;;;;;;;;5.00;2.00;;;;;9.27;71.49;100765.03;5008831;28;45436;-66
2022/03/12 04:38:41;;;;;;;;;5.00;3.00;;;;;9.38;71.31;100777.81;4999975;28;45483;-64
2022/03/12 04:41:08;;;;;;;;;6.75;5.00;;;;;9.34;71.13;100777.06;5000955;28;45857;-66
2022/03/12 04:43:33;;;;;;;;;2.00;2.00;;;;;9.40;71.06;100774.13;5008340;28;45480;-68
2022/03/12 04:46:00;;;;;;;;;3.00;3.00;;;;;9.46;70.96;100780.94;5016091;28;45324;-64
2022/03/12 04:48:27;;;;;;;;;2.00;2.00;;;;;9.45;70.81;100773.91;5014785;28;44726;-68
2022/03/12 04:50:53;;;;;;;;;3.00;2.00;;;;;9.41;70.70;100775.84;5008197;28;44871;-64
2022/03/12 04:53:21;;;;;;;;;5.25;3.50;;;;;9.43;71.43;100781.94;5004954;28;45455;-66
2022/03/12 04:55:47;;;;;;;;;3.75;2.00;;;;;9.36;71.33;100782.31;5000098;28;47134;-66
2022/03/12 04:58:13;;;;;;;;;5.25;5.25;;;;;9.31;70.39;100771.06;5002481;28;45784;-65
2022/03/12 05:00:40;;;;;;;;;3.00;3.00;;;;;9.38;70.65;100781.31;5004510;28;45901;-65
2022/03/12 05:03:10;;;;;;;;;2.75;2.00;;;;;9.26;70.87;100781.91;4998964;28;45559;-64
2022/03/12 05:05:39;;;;;;;;;2.50;2.50;;;;;9.28;71.61;100795.97;4997240;28;46082;-64
2022/03/12 05:08:15;;;;;;;;;5.50;3.00;;;;;9.21;70.97;100791.84;4999267;28;45381;-65
2022/03/12 05:10:42;;;;;;;;;6.25;5.00;;;;;9.29;71.02;100802.97;4986239;28;45315;-66
2022/03/12 05:13:10;;;;;;;;;4.75;3.00;;;;;9.31;71.57;100803.78;5001941;28;45481;-65
2022/03/12 05:15:38;;;;;;;;;4.50;3.50;;;;;9.32;70.71;100805.47;5002287;28;45570;-64
2022/03/12 05:18:11;;;;;;;;;2.25;2.00;;;;;9.29;70.41;100797.69;5002250;28;45650;-66
2022/03/12 05:20:38;;;;;;;;;4.00;2.50;;;;;9.35;71.39;100805.34;5000932;28;45389;-65
2022/03/12 05:23:07;;;;;;;;;5.75;3.00;;;;;9.33;70.95;100807.19;5000993;28;45538;-63
2022/03/12 05:25:33;;;;;;;;;6.50;4.00;;;;;9.31;71.69;100814.38;4995210;28;45425;-64
2022/03/12 05:27:59;;;;;;;;;5.00;2.50;;;;;9.31;70.98;100808.22;5002422;28;45193;-65
2022/03/12 05:30:27;;;;;;;;;3.00;3.00;;;;;9.34;70.85;100808.91;5001742;28;45244;-66
2022/03/12 05:32:53;;;;;;;;;2.25;2.25;;;;;9.40;71.10;100813.09;4999986;28;45648;-64
2022/03/12 05:35:20;;;;;;;;;4.25;2.00;;;;;9.22;70.33;100782.97;4984730;28;46961;-65
2022/03/12 05:37:48;;;;;;;;;1.50;1.50;;;;;9.38;70.64;100815.81;5002134;28;45333;-65
2022/03/12 05:40:17;;;;;;;;;7.00;4.00;;;;;9.35;69.97;100801.81;4999258;28;45180;-64
2022/03/12 05:42:44;;;;;;;;;2.00;2.00;;;;;9.39;70.68;100812.25;5000911;28;45562;-65
2022/03/12 05:45:10;;;;;;;;;4.50;4.50;;;;;9.35;70.91;100807.97;5005711;28;45471;-65
2022/03/12 05:47:39;;;;;;;;;2.25;2.25;;;;;9.41;70.97;100820.97;5009487;28;45353;-66
2022/03/12 05:50:09;;;;;;;;;5.00;5.00;;;;;9.40;71.11;100813.97;5016201;28;45326;-64
2022/03/12 05:52:49;;;;;;;;;2.25;2.00;;;;;9.44;70.32;100823.47;4992077;28;45346;-63
2022/03/12 05:55:18;;;;;;;;;4.00;4.00;;;;;9.43;70.82;100821.78;4992175;28;46334;-64
2022/03/12 05:57:44;;;;;;;;;2.00;2.00;;;;;9.35;70.54;100833.66;5009392;28;45345;-65
2022/03/12 06:00:11;;;;;;;;;3.00;3.00;;;;;9.33;71.70;100839.06;5007108;28;44726;-64
2022/03/12 06:02:52;;;;;;;;;6.50;3.50;;;;;9.37;70.96;100832.66;4998827;28;45503;-64
2022/03/12 06:05:19;;;;;;;;;3.00;3.00;;;;;9.35;71.28;100821.25;4991237;28;45697;-64
2022/03/12 06:07:46;;;;;;;;;2.00;2.00;;;;;9.39;70.37;100819.34;5004831;28;45377;-65
2022/03/12 06:10:17;;;;;;;;;2.75;2.75;;;;;9.29;70.08;100804.78;5008883;28;45444;-65
2022/03/12 06:12:43;;;;;;;;;10.25;6.25;;;;;9.42;70.19;100833.31;5004281;28;45230;-63
2022/03/12 06:15:14;;;;;;;;;2.00;2.00;;;;;9.34;70.42;100819.53;4995417;28;45348;-69
2022/03/12 06:17:40;;;;;;;;;1.00;1.00;;;;;9.31;70.57;100817.03;4991233;28;45207;-67
2022/03/12 06:20:12;;;;;;;;;4.50;3.00;;;;;9.41;70.06;100844.88;5002252;28;45247;-66
2022/03/12 06:22:38;;;;;;;;;3.50;3.50;;;;;9.40;70.58;100859.09;4992977;28;45238;-64
2022/03/12 06:25:06;;;;;;;;;3.75;2.00;;;;;9.45;70.25;100862.38;5014701;28;45701;-66
2022/03/12 06:27:32;;;;;;;;;2.00;2.00;;;;;9.43;70.27;100856.28;5015968;28;44821;-65
2022/03/12 06:29:58;;;;;;;;;1.75;1.75;;;;;9.44;70.29;100862.44;4996623;28;45599;-63
2022/03/12 06:32:23;;;;;;;;;3.00;3.00;;;;;9.31;70.62;100856.84;5011853;28;45547;-63
2022/03/12 06:34:49;;;;;;;;;4.50;4.50;;;;;9.37;69.75;100872.47;5012280;28;45516;-68
2022/03/12 06:37:14;;;;;;;;;5.25;3.50;;;;;9.38;69.39;100873.38;5012350;28;44758;-65
2022/03/12 06:39:40;;;;;;;;;5.75;3.50;;;;;9.35;70.71;100870.81;5013922;28;45361;-66
2022/03/12 06:42:06;;;;;;;;;4.00;3.00;;;;;9.30;69.93;100871.06;4995838;28;44825;-65
2022/03/12 06:44:33;;;;;;;;;3.50;3.50;;;;;9.32;69.78;100879.81;5014028;28;45412;-65
2022/03/12 06:47:04;;;;;;;;;3.50;3.50;;;;;9.29;70.51;100872.00;5016106;28;45416;-64
2022/03/12 06:49:29;;;;;;;;;6.00;5.00;;;;;9.25;69.79;100877.53;5009813;28;45678;-67
2022/03/12 06:51:56;;;;;;;;;4.50;2.50;;;;;9.16;69.82;100884.97;5004856;28;45511;-65
2022/03/12 06:54:22;;;;;;;;;2.50;2.50;;;;;9.12;70.55;100891.34;5004165;28;46234;-65
2022/03/12 06:56:48;;;;;;;;;1.75;1.75;;;;;9.11;70.49;100899.34;5001057;28;45447;-64
2022/03/12 06:59:13;;;;;;;;;5.50;3.00;;;;;9.10;70.15;100910.88;5001762;28;45714;-65
2022/03/12 07:01:39;;;;;;;;;1.50;1.50;;;;;9.05;70.39;100907.59;5006224;28;45634;-64
2022/03/12 07:04:06;;;;;;;;;6.00;5.00;;;;;9.07;70.46;100922.50;5010091;28;45191;-65
2022/03/12 07:06:33;;;;;;;;;4.50;3.00;;;;;9.07;70.72;100927.81;4984599;28;45354;-66
2022/03/12 07:08:59;;;;;;;;;1.75;1.75;;;;;9.06;70.63;100928.75;5001375;28;45527;-65
2022/03/12 07:11:25;;;;;;;;;4.50;2.50;;;;;9.11;70.65;100931.19;5001823;28;45373;-64
2022/03/12 07:13:50;;;;;;;;;3.50;3.50;;;;;9.12;69.95;100935.59;5003940;28;45659;-66
2022/03/12 07:16:15;;;;;;;;;3.50;3.50;;;;;9.01;70.57;100927.25;4993205;28;45345;-64
2022/03/12 07:18:41;;;;;;;;;6.00;5.00;;;;;9.05;70.77;100936.78;5017533;28;44787;-61
2022/03/12 07:21:08;;;;;;;;;3.00;3.00;;;;;9.11;69.76;100936.50;5000313;28;45022;-63
2022/03/12 07:23:34;;;;;;;;;6.25;5.00;;;;;9.13;70.04;100934.66;5016772;28;45153;-63
2022/03/12 07:26:00;;;;;;;;;8.25;4.50;;;;;9.09;69.86;100918.00;5017435;28;45286;-67
2022/03/12 07:28:27;;;;;;;;;4.00;4.00;;;;;9.21;69.72;100935.16;5017200;28;45230;-64
2022/03/12 07:30:53;;;;;;;;;5.00;3.00;;;;;9.21;70.11;100932.50;4999697;28;45645;-63
2022/03/12 07:33:18;;;;;;;;;3.00;1.50;;;;;9.20;69.78;100927.28;5016943;28;45147;-64
2022/03/12 07:35:44;;;;;;;;;4.75;2.50;;;;;9.30;69.59;100934.75;5016157;28;44839;-62
2022/03/12 07:38:10;;;;;;;;;3.00;2.50;;;;;9.29;69.00;100938.34;5011560;28;44784;-63
2022/03/12 07:40:35;;;;;;;;;3.00;3.00;;;;;9.36;69.99;100942.41;5017077;28;44930;-62
2022/03/12 07:43:01;;;;;;;;;6.75;5.75;;;;;9.39;69.07;100944.97;4997144;28;46038;-63
2022/03/12 07:45:27;;;;;;;;;5.75;5.00;;;;;9.44;68.92;100950.06;5014267;28;44849;-61
2022/03/12 07:47:53;;;;;;;;;5.25;5.25;;;;;9.45;68.67;100943.81;5005303;28;45523;-62
2022/03/12 07:50:19;;;;;;;;;4.25;2.00;;;;;9.55;68.63;100954.88;5002049;28;45527;-64
2022/03/12 07:52:45;;;;;;;;;3.00;3.00;;;;;9.52;68.83;100931.13;4985553;28;45785;-68
2022/03/12 07:55:12;;;;;;;;;5.00;3.00;;;;;9.70;68.64;100941.75;4999704;28;45333;-65
2022/03/12 07:57:40;;;;;;;;;6.50;5.25;;;;;9.75;68.39;100939.72;4986249;28;45356;-63
2022/03/12 08:00:10;;;;;;;;;5.00;5.00;;;;;9.70;68.14;100930.25;5003618;28;45457;-65
2022/03/12 08:02:36;;;;;;;;;5.00;3.00;;;;;9.79;67.69;100953.75;4999507;28;46979;-67
2022/03/12 08:05:03;;;;;;;;;6.00;5.25;;;;;9.83;67.84;100950.00;5026651;28;45490;-67
2022/03/12 08:07:29;;;;;;;;;7.00;5.00;;;;;9.84;67.93;100950.84;5018712;28;45421;-64
2022/03/12 08:09:59;;;;;;;;;5.00;5.00;;;;;9.95;67.77;100975.97;4985604;28;45704;-63
2022/03/12 08:12:28;;;;;;;;;1.50;1.50;;;;;9.86;68.50;100976.41;4984164;28;47744;-65
2022/03/12 08:14:54;;;;;;;;;4.50;4.50;;;;;9.89;67.94;100978.06;4968664;28;45327;-65
2022/03/12 08:17:20;;;;;;;;;5.75;5.00;;;;;9.85;68.29;100969.38;5000969;28;45558;-67
2022/03/12 08:19:46;;;;;;;;;6.00;4.00;;;;;10.03;68.23;100986.25;4984512;28;45015;-65
2022/03/12 08:22:13;;;;;;;;;6.50;5.25;;;;;10.04;67.71;100986.19;5004607;28;46600;-65
2022/03/12 08:24:38;;;;;;;;;3.00;3.00;;;;;10.11;68.08;100993.84;5004544;28;45258;-67
2022/03/12 08:27:07;;;;;;;;;6.75;2.00;;;;;10.10;68.01;100989.47;5001569;28;45464;-67
2022/03/12 08:29:33;;;;;;;;;5.75;3.50;;;;;10.10;66.92;100986.81;5002594;28;45247;-67
2022/03/12 08:31:58;;;;;;;;;7.00;6.00;;;;;10.23;67.08;101010.09;4988543;28;45554;-65
2022/03/12 08:34:24;;;;;;;;;5.75;3.00;;;;;10.20;66.87;101022.66;5007073;28;44790;-64
2022/03/12 08:36:50;;;;;;;;;6.75;5.00;;;;;10.23;67.70;101025.19;4999264;28;45391;-65
2022/03/12 08:39:16;;;;;;;;;4.25;3.00;;;;;10.23;67.09;101022.53;5002964;28;45548;-65
2022/03/12 08:41:42;;;;;;;;;3.00;3.00;;;;;10.11;67.42;101001.81;4987356;28;45460;-63
2022/03/12 08:44:09;;;;;;;;;3.00;3.00;;;;;10.23;67.70;101025.19;5007718;28;45440;-64
2022/03/12 08:46:35;;;;;;;;;5.75;5.25;;;;;10.22;67.39;101018.16;5008230;28;45271;-64
2022/03/12 08:49:02;;;;;;;;;5.00;3.00;;;;;10.19;66.92;101020.94;5004823;28;45237;-64
2022/03/12 08:51:27;;;;;;;;;3.50;3.50;;;;;10.21;66.85;101014.63;5004309;28;45283;-65
2022/03/12 08:53:53;;;;;;;;;6.00;4.50;;;;;10.25;67.51;101010.88;4997102;28;45854;-63
2022/03/12 08:56:19;;;;;;;;;7.50;5.25;;;;;10.39;67.03;100996.06;4984290;28;45367;-65
2022/03/12 08:58:45;;;;;;;;;6.50;5.75;;;;;10.40;66.26;100993.31;5004355;28;45471;-64
2022/03/12 09:01:10;;;;;;;;;7.00;3.50;;;;;10.50;66.42;101002.59;5012238;28;45644;-65
2022/03/12 09:03:37;;;;;;;;;3.00;3.00;;;;;10.44;67.38;101008.22;4981222;28;45262;-64
2022/03/12 09:06:03;;;;;;;;;7.00;3.50;;;;;10.36;66.68;100990.91;4997398;28;45411;-67
2022/03/12 09:08:29;;;;;;;;;6.00;3.00;;;;;10.47;66.71;101004.53;5001800;28;45556;-65
2022/03/12 09:10:55;;;;;;;;;7.25;5.00;;;;;10.48;66.99;100985.00;5000562;28;45476;-65
2022/03/12 09:13:22;;;;;;;;;5.50;3.00;;;;;10.63;66.44;101006.38;5007393;28;45501;-57
2022/03/12 09:15:47;;;;;;;;;6.00;3.00;;;;;10.62;66.36;100983.38;5007890;28;45536;-64
2022/03/12 09:18:14;;;;;;;;;4.75;4.75;;;;;10.78;66.83;100993.22;5001605;28;45672;-61
2022/03/12 09:20:47;;;;;;;;;8.00;6.00;;;;;10.88;66.52;100992.69;5004717;28;45739;-62
2022/03/12 09:23:14;;;;;;;;;9.50;5.75;;;;;10.92;66.25;100991.59;4985969;28;45286;-64
2022/03/12 09:25:39;;;;;;;;;12.25;10.75;;;;;10.89;65.98;100986.44;5005487;28;45526;-64
2022/03/12 09:28:05;;;;;;;;;7.75;7.75;;;;;10.84;66.19;100982.28;5004894;28;45354;-63
2022/03/12 09:30:30;;;;;;;;;15.25;13.25;;;;;10.92;66.35;100999.56;5006205;28;45818;-63
2022/03/12 09:32:56;;;;;;;;;12.25;7.25;;;;;10.82;66.29;100989.50;4968783;28;45697;-64
2022/03/12 09:35:22;;;;;;;;;9.00;6.75;;;;;10.89;66.83;100999.72;4985920;28;45363;-62
2022/03/12 09:37:48;;;;;;;;;7.00;7.00;;;;;10.86;66.64;100999.91;5004715;28;45413;-65
2022/03/12 09:40:16;;;;;;;;;9.75;6.00;;;;;10.84;66.66;100993.78;5003748;28;45320;-61
2022/03/12 09:42:43;;;;;;;;;9.75;7.50;;;;;10.91;67.19;101000.50;5015810;28;45265;-62
2022/03/12 09:45:10;;;;;;;;;10.25;6.00;;;;;10.94;66.95;100994.19;5006081;28;44822;-63
2022/03/12 09:47:35;;;;;;;;;11.50;10.50;;;;;10.97;67.36;100993.16;5022812;28;45464;-63
2022/03/12 09:50:01;;;;;;;;;8.50;6.00;;;;;10.92;67.23;100974.75;5026589;28;46081;-65
2022/03/12 09:52:27;;;;;;;;;11.00;7.25;;;;;11.05;66.99;100990.97;5023849;28;45926;-66
2022/03/12 09:54:52;;;;;;;;;6.00;6.00;;;;;11.08;66.25;100989.03;5026794;28;45504;-67
2022/03/12 09:57:18;;;;;;;;;7.00;7.00;;;;;11.11;66.53;100988.84;5025513;28;45324;-65
2022/03/12 09:59:48;;;;;;;;;8.00;6.00;;;;;11.19;66.42;100988.44;5009636;28;46786;-65
2022/03/12 10:02:14;;;;;;;;;6.00;6.00;;;;;11.22;66.28;100998.94;4984716;28;45448;-62
2022/03/12 10:04:39;;;;;;;;;5.75;4.25;;;;;11.28;66.44;100995.09;4978842;28;45500;-62
2022/03/12 10:07:06;;;;;;;;;3.25;3.25;;;;;11.34;65.76;100995.66;4982117;28;45448;-59
2022/03/12 10:09:32;;;;;;;;;3.00;3.00;;;;;11.32;65.72;100996.66;4990338;28;45577;-59
2022/03/12 10:11:59;;;;;;;;;6.50;5.50;;;;;11.34;65.66;100992.13;4982303;28;45484;-59
2022/03/12 10:14:25;;;;;;;;;3.00;3.00;;;;;11.48;65.95;100985.13;5019115;28;45527;-57
2022/03/12 10:16:50;;;;;;;;;2.75;2.75;;;;;11.53;64.71;100980.41;5017442;28;45491;-58
2022/03/12 10:19:16;;;;;;;;;5.25;3.00;;;;;11.60;65.44;100988.94;5002038;28;45251;-63
2022/03/12 10:21:45;;;;;;;;;8.25;4.25;;;;;11.65;65.24;100991.34;4999743;28;45232;-58
2022/03/12 10:24:11;;;;;;;;;4.00;4.00;;;;;11.68;65.05;100996.50;5004175;28;45463;-58
2022/03/12 10:26:38;;;;;;;;;3.50;2.75;;;;;11.78;64.53;100974.59;5021736;28;45521;-57
2022/03/12 10:29:04;;;;;;;;;6.25;3.50;;;;;11.89;64.37;100979.38;5022119;28;45331;-56
2022/03/12 10:31:30;;;;;;;;;3.75;3.00;;;;;11.89;64.12;100965.19;5013632;28;44779;-66
2022/03/12 10:34:22;;;;;;;;;4.50;3.00;;;;;12.05;64.19;100974.03;5010078;28;45347;-63
2022/03/12 10:36:49;;;;;;;;;3.00;3.00;;;;;12.10;63.62;100961.31;5002376;28;45789;-64
2022/03/12 10:39:15;;;;;;;;;4.00;2.00;;;;;12.22;63.44;100976.59;4998826;28;45589;-65
2022/03/12 10:41:41;;;;;;;;;3.67;3.67;;;;;12.28;63.06;100973.59;5008907;28;45440;-64
2022/03/12 10:44:11;;;;;;;;;6.00;5.33;;;;;12.29;63.15;100978.00;5014370;28;44841;-65
2022/03/12 10:46:40;;;;;;;;;4.67;4.67;;;;;12.30;63.26;100971.72;4991680;28;44809;-63
2022/03/12 10:49:07;;;;;;;;;7.50;7.00;;;;;12.28;63.03;100976.28;5005772;28;46297;-63
2022/03/12 10:51:36;;;;;;;;;7.00;6.00;;;;;12.31;63.05;100980.56;5005618;28;45372;-63
2022/03/12 10:54:20;;;;;;;;;6.00;6.00;;;;;12.31;63.31;100976.09;5006362;28;45520;-68
2022/03/12 10:56:54;;;;;;;;;4.00;4.00;;;;;12.36;63.37;100967.81;4990676;28;45464;-64
2022/03/12 10:59:20;;;;;;;;;8.00;6.00;;;;;12.45;63.02;100969.97;5001570;28;45426;-63
2022/03/12 11:01:50;;;;;;;;;6.00;6.00;;;;;12.49;62.88;100973.31;4999718;28;45385;-65
2022/03/12 11:04:26;;;;;;;;;6.00;6.00;;;;;12.54;62.42;100979.25;4998123;28;45625;-65
2022/03/12 11:06:51;;;;;;;;;3.00;3.00;;;;;12.60;62.56;100974.41;5004311;28;45511;-63
2022/03/12 11:09:31;;;;;;;;;9.00;4.67;;;;;12.63;62.89;100965.34;4990004;28;46626;-64
2022/03/12 11:12:00;;;;;;;;;10.33;7.00;;;;;12.59;62.21;100947.81;5000818;28;45343;-63
2022/03/12 11:14:30;;;;;;;;;6.00;6.00;;;;;12.70;62.37;100948.03;4998147;28;45292;-64
2022/03/12 11:16:56;;;;;;;;;6.33;6.33;;;;;12.75;62.55;100948.63;4989050;28;45407;-65
2022/03/12 11:19:37;;;;;;;;;6.00;4.33;;;;;12.82;62.05;100939.31;4979361;28;47348;-60
2022/03/12 11:22:09;;;;;;;;;6.67;4.00;;;;;12.80;62.15;100951.91;5004327;28;45540;-64
2022/03/12 11:24:54;;;;;;;;;6.00;4.00;;;;;12.81;62.13;100948.28;5010556;28;45182;-65
2022/03/12 11:27:34;;;;;;;;;5.67;4.00;;;;;12.82;61.75;100939.31;5013993;28;44836;-66
2022/03/12 11:30:08;;;;;;;;;7.00;5.00;;;;;12.93;62.05;100950.22;5007740;28;45364;-64
2022/03/12 11:32:36;;;;;;;;;6.00;6.00;;;;;12.95;61.54;100942.97;5008229;28;44781;-65